Pathfinder — WDD7777 — position and weather

sailwx.info

Track history (hours):
 
Tides and Currents Weather Stations Pressure Air Temp Water Temp Dewpoint Dewpoint Depression Visibility Wind Speed Wind Dir Waves Ship Positions

Pathfinder

Owner: Milton Point LLC, Norfolk, VA. More information available from US FCC via Universal Licensing System and Coast Guard Vessel Documentation Center.

Last reported at 2018-Jul-21 07:39 UTC. Time now 2018-Jul-21 10:59 UTC.
Position N 40°46' W 073°57'.

Length 31 m; draft 4.1 m.

Type: Towing. MMSI: 367191190.

Date/timePositionNaut miles runAvg speedWind from/ knotsBaromVisibWave heightAir tempDewpointWater temp
2018-Jul-21 07:39N 40°46' W 073°57'1 8.2
2018-Jul-21 07:30N 40°45' W 073°58'3 7.0
2018-Jul-21 07:00N 40°42' W 074°00'3 6.2
2018-Jul-21 06:30N 40°40' W 074°03'2 4.8
2018-Jul-21 06:00N 40°39' W 074°06'2 4.5
2018-Jul-21 05:30N 40°39' W 074°09'2 3.5
2018-Jul-21 04:58N 40°38' W 074°12'0 0.4
2018-Jul-21 04:30N 40°38' W 074°12'0 0.0
2018-Jul-21 04:00N 40°38' W 074°12'0 0.0
2018-Jul-21 03:30N 40°38' W 074°12'0 0.0
2018-Jul-21 03:00N 40°38' W 074°12'0 0.0
2018-Jul-21 02:30N 40°38' W 074°12'0 0.0
2018-Jul-21 02:00N 40°38' W 074°12'1 2.0
2018-Jul-21 01:24N 40°39' W 074°10'2 4.1
2018-Jul-21 00:59N 40°39' W 074°08'2 4.0
2018-Jul-21 00:30N 40°39' W 074°06'2 4.3
2018-Jul-21 00:00N 40°40' W 074°03'3 5.4
2018-Jul-20 23:30N 40°42' W 074°00'3 6.0
2018-Jul-20 23:00N 40°44' W 073°58'6 5.5
2018-Jul-20 21:54N 40°48' W 073°52'2 0.2
2018-Jul-20 11:31N 40°46' W 073°51'0 0.1
2018-Jul-20 11:29N 40°46' W 073°51'0 0.0
2018-Jul-20 11:00N 40°46' W 073°51'0 0.0
2018-Jul-20 09:58N 40°46' W 073°51'0 0.1
2018-Jul-20 09:28N 40°46' W 073°51'0 0.0
2018-Jul-20 08:54N 40°46' W 073°51'0 0.0
2018-Jul-20 08:30N 40°46' W 073°51'0 0.0
2018-Jul-20 08:00N 40°46' W 073°51'0 0.0
2018-Jul-20 07:30N 40°46' W 073°51'0 0.0
2018-Jul-20 06:59N 40°46' W 073°51'2 3.6
2018-Jul-20 06:26N 40°48' W 073°52'3 7.1
2018-Jul-20 05:59N 40°47' W 073°56'4 8.0
2018-Jul-20 05:30N 40°43' W 073°58'4 7.2
2018-Jul-20 05:00N 40°41' W 074°02'3 5.2
2018-Jul-20 04:30N 40°39' W 074°05'2 3.9
2018-Jul-20 04:00N 40°39' W 074°07'2 4.0
2018-Jul-20 03:30N 40°39' W 074°10'2 3.0
2018-Jul-20 03:01N 40°38' W 074°12'1 2.7
2018-Jul-20 02:30N 40°39' W 074°10'3 5.1
2018-Jul-20 02:01N 40°39' W 074°07'3 5.1
2018-Jul-20 01:31N 40°40' W 074°03'3 5.4
2018-Jul-20 01:00N 40°41' W 074°01'3 5.8
2018-Jul-20 00:30N 40°44' W 073°58'4 6.9
2018-Jul-20 00:00N 40°47' W 073°56'3 5.6
2018-Jul-19 23:24N 40°48' W 073°52'4 0.3
2018-Jul-19 06:09N 40°46' W 073°57'1 8.1
2018-Jul-19 06:00N 40°45' W 073°58'3 6.8
2018-Jul-19 05:30N 40°42' W 074°00'3 6.0
2018-Jul-19 05:00N 40°40' W 074°03'3 5.6
2018-Jul-19 04:30N 40°39' W 074°06'3 5.3
2018-Jul-19 04:00N 40°39' W 074°10'1 2.5
2018-Jul-19 03:29N 40°38' W 074°12'0 0.3
2018-Jul-19 02:55N 40°38' W 074°12'0 0.4
2018-Jul-19 01:58N 40°39' W 074°11'2 4.1
2018-Jul-19 01:29N 40°39' W 074°09'2 5.0
2018-Jul-19 00:59N 40°39' W 074°06'2 4.5
2018-Jul-19 00:30N 40°40' W 074°03'3 5.3
2018-Jul-19 00:00N 40°42' W 074°00'3 6.0
2018-Jul-18 23:30N 40°44' W 073°58'6 6.2
2018-Jul-18 22:35N 40°48' W 073°53'1 5.2
2018-Jul-18 22:27N 40°48' W 073°52'5 0.2
2018-Jul-18 03:57N 40°46' W 073°57'3 7.8
2018-Jul-18 03:30N 40°43' W 073°59'3 6.9
2018-Jul-18 03:00N 40°40' W 074°02'3 5.2
2018-Jul-18 02:30N 40°39' W 074°05'2 3.7
2018-Jul-18 02:00N 40°39' W 074°07'2 4.2
2018-Jul-18 01:30N 40°39' W 074°10'1 2.3
2018-Jul-18 00:59N 40°38' W 074°12'1 2.9
2018-Jul-18 00:30N 40°39' W 074°10'3 5.1
2018-Jul-17 23:59N 40°39' W 074°06'2 4.8
2018-Jul-17 23:30N 40°40' W 074°04'3 5.5
2018-Jul-17 23:00N 40°41' W 074°01'3 6.0
2018-Jul-17 22:30N 40°44' W 073°58'4 7.4
2018-Jul-17 22:00N 40°47' W 073°55'3 5.3
2018-Jul-17 21:27N 40°48' W 073°52'5 0.2
2018-Jul-17 02:48N 40°46' W 073°57'2 7.7
2018-Jul-17 02:30N 40°44' W 073°58'4 7.1
2018-Jul-17 02:00N 40°41' W 074°01'3 5.8
2018-Jul-17 01:30N 40°39' W 074°04'2 4.1
2018-Jul-17 01:00N 40°39' W 074°07'2 3.9
2018-Jul-17 00:30N 40°39' W 074°10'0 0.4
2018-Jul-16 23:30N 40°39' W 074°10'3 5.3
2018-Jul-16 22:59N 40°39' W 074°06'2 4.5
2018-Jul-16 22:30N 40°40' W 074°04'3 5.5
2018-Jul-16 22:00N 40°41' W 074°01'3 6.3
2018-Jul-16 21:30N 40°44' W 073°58'6 6.1
2018-Jul-16 20:27N 40°48' W 073°52'5 0.1
2018-Jul-15 00:38N 40°46' W 073°57'1 8.5
2018-Jul-15 00:30N 40°45' W 073°58'3 6.9
2018-Jul-15 00:00N 40°42' W 074°00'3 6.1
2018-Jul-14 23:30N 40°40' W 074°03'2 4.4
2018-Jul-14 23:00N 40°39' W 074°06'2 4.2
2018-Jul-14 22:30N 40°39' W 074°08'2 4.3
2018-Jul-14 21:57N 40°38' W 074°12'0 0.0
2018-Jul-14 21:19N 40°38' W 074°12'0 0.0
2018-Jul-14 19:53N 40°38' W 074°12'0 0.0
2018-Jul-14 17:28N 40°38' W 074°12'0 0.0
2018-Jul-14 16:59N 40°38' W 074°12'0 0.0
2018-Jul-14 16:21N 40°38' W 074°12'0 0.0
2018-Jul-14 16:00N 40°38' W 074°12'2 3.8
2018-Jul-14 15:28N 40°39' W 074°09'1 3.0
2018-Jul-14 15:00N 40°39' W 074°07'0 0.0
2018-Jul-14 14:30N 40°39' W 074°07'0 0.0
2018-Jul-14 13:30N 40°39' W 074°07'0 0.0
2018-Jul-14 13:00N 40°39' W 074°07'0 0.0
2018-Jul-14 12:30N 40°39' W 074°07'0 0.0
2018-Jul-14 12:00N 40°39' W 074°07'0 0.0
2018-Jul-14 11:30N 40°39' W 074°07'0 0.1
2018-Jul-14 11:01N 40°39' W 074°07'3 6.7
2018-Jul-14 10:30N 40°38' W 074°12'0 0.0
2018-Jul-14 10:00N 40°38' W 074°12'0 0.0
2018-Jul-14 09:30N 40°38' W 074°12'0 0.0
2018-Jul-14 09:00N 40°38' W 074°12'0 0.0
2018-Jul-14 08:30N 40°38' W 074°12'0 0.1
2018-Jul-14 08:00N 40°38' W 074°12'2 4.0
2018-Jul-14 07:30N 40°39' W 074°09'2 3.7
2018-Jul-14 07:00N 40°39' W 074°07'2 3.6
2018-Jul-14 06:30N 40°39' W 074°04'2 4.9
2018-Jul-14 06:00N 40°41' W 074°02'3 6.5
2018-Jul-14 05:30N 40°43' W 073°58'4 7.4
2018-Jul-14 04:57N 40°47' W 073°56'3 5.8
2018-Jul-14 04:25N 40°48' W 073°53'4 0.6
2018-Jul-13 22:07N 40°46' W 073°57'1 7.9
2018-Jul-13 22:00N 40°45' W 073°58'3 6.0
2018-Jul-13 21:30N 40°42' W 073°60'3 5.8
2018-Jul-13 21:00N 40°40' W 074°02'2 4.9
2018-Jul-13 20:30N 40°39' W 074°05'3 5.0
2018-Jul-13 20:00N 40°39' W 074°08'3 4.4
2018-Jul-13 19:26N 40°38' W 074°12'0 0.0
2018-Jul-13 18:35N 40°38' W 074°12'0 0.0
2018-Jul-13 18:26N 40°38' W 074°12'0 0.0
2018-Jul-13 17:52N 40°38' W 074°12'0 1.2
2018-Jul-13 17:30N 40°39' W 074°11'3 5.0
2018-Jul-13 17:00N 40°39' W 074°08'3 5.1
2018-Jul-13 16:30N 40°39' W 074°05'3 6.3
2018-Jul-13 16:00N 40°41' W 074°01'4 7.3
2018-Jul-13 15:30N 40°44' W 073°58'4 6.9
2018-Jul-13 14:58N 40°47' W 073°55'2 5.2
2018-Jul-13 14:30N 40°48' W 073°53'2 0.6
2018-Jul-13 11:06N 40°46' W 073°51'0 0.0
2018-Jul-13 10:58N 40°46' W 073°51'0 0.0
2018-Jul-13 10:07N 40°46' W 073°51'0 0.1
2018-Jul-13 09:50N 40°46' W 073°51'0 0.0
2018-Jul-13 09:27N 40°46' W 073°51'0 0.0
2018-Jul-13 09:00N 40°46' W 073°51'0 0.0
2018-Jul-13 08:30N 40°46' W 073°51'0 0.0
2018-Jul-13 08:00N 40°46' W 073°51'0 0.0
2018-Jul-13 07:26N 40°46' W 073°51'0 0.0
2018-Jul-13 07:00N 40°46' W 073°51'0 0.0
2018-Jul-13 06:30N 40°46' W 073°51'0 0.0
2018-Jul-13 06:01N 40°46' W 073°51'0 0.0
2018-Jul-13 05:30N 40°46' W 073°51'0 0.0
2018-Jul-13 05:00N 40°46' W 073°51'0 0.0
2018-Jul-13 04:29N 40°46' W 073°51'5 0.9
2018-Jul-12 23:29N 40°46' W 073°57'3 7.1
2018-Jul-12 23:00N 40°43' W 073°58'3 6.4
2018-Jul-12 22:30N 40°41' W 074°02'3 5.1
2018-Jul-12 22:00N 40°39' W 074°05'1 2.9
2018-Jul-12 21:30N 40°39' W 074°06'2 3.2
2018-Jul-12 21:00N 40°38' W 074°08'2 4.6
2018-Jul-12 20:29N 40°38' W 074°12'0 0.8
2018-Jul-12 20:00N 40°39' W 074°11'3 5.7
2018-Jul-12 19:30N 40°39' W 074°07'2 5.1
2018-Jul-12 19:00N 40°39' W 074°04'3 5.2
2018-Jul-12 18:30N 40°41' W 074°01'3 6.4
2018-Jul-12 18:00N 40°43' W 073°58'4 7.8
2018-Jul-12 17:29N 40°47' W 073°56'3 6.0
2018-Jul-12 16:58N 40°48' W 073°52'4 0.2
2018-Jul-11 22:41N 40°46' W 073°57'1 7.8
2018-Jul-11 22:30N 40°45' W 073°58'3 6.4
2018-Jul-11 22:00N 40°42' W 074°00'3 6.3
2018-Jul-11 21:30N 40°40' W 074°03'3 5.1
2018-Jul-11 21:00N 40°39' W 074°06'2 4.3
2018-Jul-11 20:30N 40°39' W 074°09'2 2.3
2018-Jul-11 19:42N 40°38' W 074°12'0 0.2
2018-Jul-11 19:30N 40°38' W 074°12'2 4.5
2018-Jul-11 18:57N 40°39' W 074°08'3 6.0
2018-Jul-11 18:31N 40°39' W 074°05'3 5.4
2018-Jul-11 18:00N 40°41' W 074°02'3 6.1
2018-Jul-11 17:30N 40°43' W 073°59'5 7.3
2018-Jul-11 16:51N 40°47' W 073°56'3 6.0
2018-Jul-11 16:25N 40°48' W 073°53'1 0.1
2018-Jul-11 08:32N 40°47' W 073°52'0 4.5
2018-Jul-11 08:30N 40°48' W 073°52'5 7.4
2018-Jul-11 07:52N 40°46' W 073°57'  
Track history (hours):
 
Tides and Currents Weather Stations Pressure Air Temp Water Temp Dewpoint Dewpoint Depression Visibility Wind Speed Wind Dir Waves Ship Positions

Pathfinder

Owner: Milton Point LLC, Norfolk, VA. More information available from US FCC via Universal Licensing System and Coast Guard Vessel Documentation Center.

Last reported at 2018-Jul-21 07:39 UTC. Time now 2018-Jul-21 10:59 UTC.
Position N 40°46' W 073°57'.

Length 31 m; draft 4.1 m.

Type: Towing. MMSI: 367191190.

Date/timePositionNaut miles runAvg speedWind from/ knotsBaromVisibWave heightAir tempDewpointWater temp
2018-Jul-21 07:39N 40°46' W 073°57'1 8.2
2018-Jul-21 07:30N 40°45' W 073°58'3 7.0
2018-Jul-21 07:00N 40°42' W 074°00'3 6.2
2018-Jul-21 06:30N 40°40' W 074°03'2 4.8
2018-Jul-21 06:00N 40°39' W 074°06'2 4.5
2018-Jul-21 05:30N 40°39' W 074°09'2 3.5
2018-Jul-21 04:58N 40°38' W 074°12'0 0.4
2018-Jul-21 04:30N 40°38' W 074°12'0 0.0
2018-Jul-21 04:00N 40°38' W 074°12'0 0.0
2018-Jul-21 03:30N 40°38' W 074°12'0 0.0
2018-Jul-21 03:00N 40°38' W 074°12'0 0.0
2018-Jul-21 02:30N 40°38' W 074°12'0 0.0
2018-Jul-21 02:00N 40°38' W 074°12'1 2.0
2018-Jul-21 01:24N 40°39' W 074°10'2 4.1
2018-Jul-21 00:59N 40°39' W 074°08'2 4.0
2018-Jul-21 00:30N 40°39' W 074°06'2 4.3
2018-Jul-21 00:00N 40°40' W 074°03'3 5.4
2018-Jul-20 23:30N 40°42' W 074°00'3 6.0
2018-Jul-20 23:00N 40°44' W 073°58'6 5.5
2018-Jul-20 21:54N 40°48' W 073°52'2 0.2
2018-Jul-20 11:31N 40°46' W 073°51'0 0.1
2018-Jul-20 11:29N 40°46' W 073°51'0 0.0
2018-Jul-20 11:00N 40°46' W 073°51'0 0.0
2018-Jul-20 09:58N 40°46' W 073°51'0 0.1
2018-Jul-20 09:28N 40°46' W 073°51'0 0.0
2018-Jul-20 08:54N 40°46' W 073°51'0 0.0
2018-Jul-20 08:30N 40°46' W 073°51'0 0.0
2018-Jul-20 08:00N 40°46' W 073°51'0 0.0
2018-Jul-20 07:30N 40°46' W 073°51'0 0.0
2018-Jul-20 06:59N 40°46' W 073°51'2 3.6
2018-Jul-20 06:26N 40°48' W 073°52'3 7.1
2018-Jul-20 05:59N 40°47' W 073°56'4 8.0
2018-Jul-20 05:30N 40°43' W 073°58'4 7.2
2018-Jul-20 05:00N 40°41' W 074°02'3 5.2
2018-Jul-20 04:30N 40°39' W 074°05'2 3.9
2018-Jul-20 04:00N 40°39' W 074°07'2 4.0
2018-Jul-20 03:30N 40°39' W 074°10'2 3.0
2018-Jul-20 03:01N 40°38' W 074°12'1 2.7
2018-Jul-20 02:30N 40°39' W 074°10'3 5.1
2018-Jul-20 02:01N 40°39' W 074°07'3 5.1
2018-Jul-20 01:31N 40°40' W 074°03'3 5.4
2018-Jul-20 01:00N 40°41' W 074°01'3 5.8
2018-Jul-20 00:30N 40°44' W 073°58'4 6.9
2018-Jul-20 00:00N 40°47' W 073°56'3 5.6
2018-Jul-19 23:24N 40°48' W 073°52'4 0.3
2018-Jul-19 06:09N 40°46' W 073°57'1 8.1
2018-Jul-19 06:00N 40°45' W 073°58'3 6.8
2018-Jul-19 05:30N 40°42' W 074°00'3 6.0
2018-Jul-19 05:00N 40°40' W 074°03'3 5.6
2018-Jul-19 04:30N 40°39' W 074°06'3 5.3
2018-Jul-19 04:00N 40°39' W 074°10'1 2.5
2018-Jul-19 03:29N 40°38' W 074°12'0 0.3
2018-Jul-19 02:55N 40°38' W 074°12'0 0.4
2018-Jul-19 01:58N 40°39' W 074°11'2 4.1
2018-Jul-19 01:29N 40°39' W 074°09'2 5.0
2018-Jul-19 00:59N 40°39' W 074°06'2 4.5
2018-Jul-19 00:30N 40°40' W 074°03'3 5.3
2018-Jul-19 00:00N 40°42' W 074°00'3 6.0
2018-Jul-18 23:30N 40°44' W 073°58'6 6.2
2018-Jul-18 22:35N 40°48' W 073°53'1 5.2
2018-Jul-18 22:27N 40°48' W 073°52'5 0.2
2018-Jul-18 03:57N 40°46' W 073°57'3 7.8
2018-Jul-18 03:30N 40°43' W 073°59'3 6.9
2018-Jul-18 03:00N 40°40' W 074°02'3 5.2
2018-Jul-18 02:30N 40°39' W 074°05'2 3.7
2018-Jul-18 02:00N 40°39' W 074°07'2 4.2
2018-Jul-18 01:30N 40°39' W 074°10'1 2.3
2018-Jul-18 00:59N 40°38' W 074°12'1 2.9
2018-Jul-18 00:30N 40°39' W 074°10'3 5.1
2018-Jul-17 23:59N 40°39' W 074°06'2 4.8
2018-Jul-17 23:30N 40°40' W 074°04'3 5.5
2018-Jul-17 23:00N 40°41' W 074°01'3 6.0
2018-Jul-17 22:30N 40°44' W 073°58'4 7.4
2018-Jul-17 22:00N 40°47' W 073°55'3 5.3
2018-Jul-17 21:27N 40°48' W 073°52'5 0.2
2018-Jul-17 02:48N 40°46' W 073°57'2 7.7
2018-Jul-17 02:30N 40°44' W 073°58'4 7.1
2018-Jul-17 02:00N 40°41' W 074°01'3 5.8
2018-Jul-17 01:30N 40°39' W 074°04'2 4.1
2018-Jul-17 01:00N 40°39' W 074°07'2 3.9
2018-Jul-17 00:30N 40°39' W 074°10'0 0.4
2018-Jul-16 23:30N 40°39' W 074°10'3 5.3
2018-Jul-16 22:59N 40°39' W 074°06'2 4.5
2018-Jul-16 22:30N 40°40' W 074°04'3 5.5
2018-Jul-16 22:00N 40°41' W 074°01'3 6.3
2018-Jul-16 21:30N 40°44' W 073°58'6 6.1
2018-Jul-16 20:27N 40°48' W 073°52'5 0.1
2018-Jul-15 00:38N 40°46' W 073°57'1 8.5
2018-Jul-15 00:30N 40°45' W 073°58'3 6.9
2018-Jul-15 00:00N 40°42' W 074°00'3 6.1
2018-Jul-14 23:30N 40°40' W 074°03'2 4.4
2018-Jul-14 23:00N 40°39' W 074°06'2 4.2
2018-Jul-14 22:30N 40°39' W 074°08'2 4.3
2018-Jul-14 21:57N 40°38' W 074°12'0 0.0
2018-Jul-14 21:19N 40°38' W 074°12'0 0.0
2018-Jul-14 19:53N 40°38' W 074°12'0 0.0
2018-Jul-14 17:28N 40°38' W 074°12'0 0.0
2018-Jul-14 16:59N 40°38' W 074°12'0 0.0
2018-Jul-14 16:21N 40°38' W 074°12'0 0.0
2018-Jul-14 16:00N 40°38' W 074°12'2 3.8
2018-Jul-14 15:28N 40°39' W 074°09'1 3.0
2018-Jul-14 15:00N 40°39' W 074°07'0 0.0
2018-Jul-14 14:30N 40°39' W 074°07'0 0.0
2018-Jul-14 13:30N 40°39' W 074°07'0 0.0
2018-Jul-14 13:00N 40°39' W 074°07'0 0.0
2018-Jul-14 12:30N 40°39' W 074°07'0 0.0
2018-Jul-14 12:00N 40°39' W 074°07'0 0.0
2018-Jul-14 11:30N 40°39' W 074°07'0 0.1
2018-Jul-14 11:01N 40°39' W 074°07'3 6.7
2018-Jul-14 10:30N 40°38' W 074°12'0 0.0
2018-Jul-14 10:00N 40°38' W 074°12'0 0.0
2018-Jul-14 09:30N 40°38' W 074°12'0 0.0
2018-Jul-14 09:00N 40°38' W 074°12'0 0.0
2018-Jul-14 08:30N 40°38' W 074°12'0 0.1
2018-Jul-14 08:00N 40°38' W 074°12'2 4.0
2018-Jul-14 07:30N 40°39' W 074°09'2 3.7
2018-Jul-14 07:00N 40°39' W 074°07'2 3.6
2018-Jul-14 06:30N 40°39' W 074°04'2 4.9
2018-Jul-14 06:00N 40°41' W 074°02'3 6.5
2018-Jul-14 05:30N 40°43' W 073°58'4 7.4
2018-Jul-14 04:57N 40°47' W 073°56'3 5.8
2018-Jul-14 04:25N 40°48' W 073°53'4 0.6
2018-Jul-13 22:07N 40°46' W 073°57'1 7.9
2018-Jul-13 22:00N 40°45' W 073°58'3 6.0
2018-Jul-13 21:30N 40°42' W 073°60'3 5.8
2018-Jul-13 21:00N 40°40' W 074°02'2 4.9
2018-Jul-13 20:30N 40°39' W 074°05'3 5.0
2018-Jul-13 20:00N 40°39' W 074°08'3 4.4
2018-Jul-13 19:26N 40°38' W 074°12'0 0.0
2018-Jul-13 18:35N 40°38' W 074°12'0 0.0
2018-Jul-13 18:26N 40°38' W 074°12'0 0.0
2018-Jul-13 17:52N 40°38' W 074°12'0 1.2
2018-Jul-13 17:30N 40°39' W 074°11'3 5.0
2018-Jul-13 17:00N 40°39' W 074°08'3 5.1
2018-Jul-13 16:30N 40°39' W 074°05'3 6.3
2018-Jul-13 16:00N 40°41' W 074°01'4 7.3
2018-Jul-13 15:30N 40°44' W 073°58'4 6.9
2018-Jul-13 14:58N 40°47' W 073°55'2 5.2
2018-Jul-13 14:30N 40°48' W 073°53'2 0.6
2018-Jul-13 11:06N 40°46' W 073°51'0 0.0
2018-Jul-13 10:58N 40°46' W 073°51'0 0.0
2018-Jul-13 10:07N 40°46' W 073°51'0 0.1
2018-Jul-13 09:50N 40°46' W 073°51'0 0.0
2018-Jul-13 09:27N 40°46' W 073°51'0 0.0
2018-Jul-13 09:00N 40°46' W 073°51'0 0.0
2018-Jul-13 08:30N 40°46' W 073°51'0 0.0
2018-Jul-13 08:00N 40°46' W 073°51'0 0.0
2018-Jul-13 07:26N 40°46' W 073°51'0 0.0
2018-Jul-13 07:00N 40°46' W 073°51'0 0.0
2018-Jul-13 06:30N 40°46' W 073°51'0 0.0
2018-Jul-13 06:01N 40°46' W 073°51'0 0.0
2018-Jul-13 05:30N 40°46' W 073°51'0 0.0
2018-Jul-13 05:00N 40°46' W 073°51'0 0.0
2018-Jul-13 04:29N 40°46' W 073°51'5 0.9
2018-Jul-12 23:29N 40°46' W 073°57'3 7.1
2018-Jul-12 23:00N 40°43' W 073°58'3 6.4
2018-Jul-12 22:30N 40°41' W 074°02'3 5.1
2018-Jul-12 22:00N 40°39' W 074°05'1 2.9
2018-Jul-12 21:30N 40°39' W 074°06'2 3.2
2018-Jul-12 21:00N 40°38' W 074°08'2 4.6
2018-Jul-12 20:29N 40°38' W 074°12'0 0.8
2018-Jul-12 20:00N 40°39' W 074°11'3 5.7
2018-Jul-12 19:30N 40°39' W 074°07'2 5.1
2018-Jul-12 19:00N 40°39' W 074°04'3 5.2
2018-Jul-12 18:30N 40°41' W 074°01'3 6.4
2018-Jul-12 18:00N 40°43' W 073°58'4 7.8
2018-Jul-12 17:29N 40°47' W 073°56'3 6.0
2018-Jul-12 16:58N 40°48' W 073°52'4 0.2
2018-Jul-11 22:41N 40°46' W 073°57'1 7.8
2018-Jul-11 22:30N 40°45' W 073°58'3 6.4
2018-Jul-11 22:00N 40°42' W 074°00'3 6.3
2018-Jul-11 21:30N 40°40' W 074°03'3 5.1
2018-Jul-11 21:00N 40°39' W 074°06'2 4.3
2018-Jul-11 20:30N 40°39' W 074°09'2 2.3
2018-Jul-11 19:42N 40°38' W 074°12'0 0.2
2018-Jul-11 19:30N 40°38' W 074°12'2 4.5
2018-Jul-11 18:57N 40°39' W 074°08'3 6.0
2018-Jul-11 18:31N 40°39' W 074°05'3 5.4
2018-Jul-11 18:00N 40°41' W 074°02'3 6.1
2018-Jul-11 17:30N 40°43' W 073°59'5 7.3
2018-Jul-11 16:51N 40°47' W 073°56'3 6.0
2018-Jul-11 16:25N 40°48' W 073°53'1 0.1
2018-Jul-11 08:32N 40°47' W 073°52'0 4.5
2018-Jul-11 08:30N 40°48' W 073°52'5 7.4
2018-Jul-11 07:52N 40°46' W 073°57'  

Dump ship's entire track history